Oslo, Norway
Current Conditions -  °F | °C
As of 8:50 PM on Monday 22 Dec 2014 (Local Time) from ENGM Reporting Station
Few Clouds Few Clouds  
Wind Chill: 18°   Ceiling: Unl
Heat Index: 18°   Visibility: 6mi
Dew Point: 16°   Wind: 1mph
Humidity: 93%   Direction: NA
Pressure: 29.18"   Gusts: NA
Location:  60.2°N, 11.08°E
Report Text: ENGM 221950Z VRB01KT 9999 FEW001 M08/M09 Q0988 NOSIG
Loading
Personal Weather Stations






























Interactive Weather Map New forecast layout! Learn more

10-Day Weather Forecast

Advertisements
Track Severe Weather on mobile